Airfield :
LOGIN :

Register | Disclaimer

   EN    FR    IT 

 










Legend :    VFR   Marginal VFR   IFR   Intensive IFR   Very Intensive IFR
Visi :
Ceiling :
>= 8 km
>= 3000ft
5 to 8 km
1000 to 3000 ft
1500m to 5 km
500 to 1000 ft
800 to 1500m
200 to 500 ft
< 800m
< 200 ft
Symbols :   Thunderstorms  Fog  Heavy snow  Heavy precipitations  Wind > 20 kt
SIGMETs :     Misc.  Thunderstorms  Icing  Turbulence  Mountain Waves  Volcanic Ashes






- Airport Elevation : 659 ft
- IATA code : LYN


LFLY - Lyon Bron

CURRENT METAR :
  • 252300Z AUTO 33010KT 9999 FEW031 OVC038 03/M02 Q1019 TEMPO BKN014

EXPIRED METARs :
  • 252230Z AUTO 34007KT 9999 BKN035 BKN054 OVC072 03/M02 Q1018 TEMPO BKN014
  • 252200Z AUTO 33008KT 9999 FEW037 BKN050 BKN072 03/M02 Q1017 TEMPO BKN014
  • 252130Z AUTO 33004KT 9999 BKN037 OVC043 03/M02 Q1017 TEMPO BKN014
  • 252100Z AUTO 33007KT 9999 BKN035 BKN045 OVC072 03/M02 Q1016 TEMPO BKN014
  • 252030Z AUTO 33008KT 9999 FEW042 SCT060 OVC070 03/M02 Q1016 TEMPO BKN014

TAF TAF LFLY
Valid from the 25 at 18:00 until the 26 at 18:00 UTC


251700Z 2518/2618 34005KT 9999 FEW040 BKN060
PROB30
TEMPO 2522/2608 BKN014
ATIS : +33 4 72 15 87 96



MET'MAP, your aeronautical weather chart ! - Copyright ORBIFLY December 2007 - Disclaimer

ORBIFLY MET'MAP TEAM :

Programming & Development : Alexandra Zaïnal
Concept & original design : Baudouin d'Aumeries
Assistance for programming : Marc-Olivier Méhu
Technical & hardware support : Manuel Goepfert

Contact : metmap@orbifly.com




SOURCES & CREDITS :

   NOAA